Time;durP1;ratioP1;P1;durP2;ratioP2;P2;SDS_P1;SDS_P2;PMS_P1;PMS_P2;Temp;Humidity;BMP_temperature;BMP_pressure;BME280_temperature;BME280_humidity;BME280_pressure;Samples;Min_cycle;Max_cycle;Signal;HPM_P1;HPM_P2
2023/09/05 00:02:24;;;;;;;0.33;0.33;;;15.30;99.90;;;;;;5096648;28;20040;-77
2023/09/05 00:04:53;;;;;;;0.47;0.47;;;15.30;99.90;;;;;;5096678;28;20164;-78
2023/09/05 00:07:18;;;;;;;0.45;0.45;;;15.30;99.90;;;;;;5096641;28;20189;-77
2023/09/05 00:09:44;;;;;;;0.40;0.40;;;15.30;99.90;;;;;;5096609;28;20478;-77
2023/09/05 00:12:10;;;;;;;0.40;0.40;;;15.30;99.90;;;;;;5096381;28;20040;-78
2023/09/05 00:14:36;;;;;;;0.40;0.40;;;15.20;99.90;;;;;;5096949;28;20047;-77
2023/09/05 00:17:02;;;;;;;0.50;0.50;;;15.20;99.90;;;;;;5096299;28;20036;-77
2023/09/05 00:19:28;;;;;;;0.30;0.30;;;15.20;99.90;;;;;;5096385;28;20047;-78
2023/09/05 00:21:54;;;;;;;0.50;0.50;;;15.20;99.90;;;;;;5096299;28;20046;-78
2023/09/05 00:24:27;;;;;;;0.73;0.63;;;15.20;99.90;;;;;;5096250;28;20109;-77
2023/09/05 00:26:55;;;;;;;0.38;0.38;;;15.20;99.90;;;;;;5096184;28;20054;-77
2023/09/05 00:29:21;;;;;;;1.90;0.73;;;15.20;99.90;;;;;;5095829;28;20614;-77
2023/09/05 00:31:47;;;;;;;0.55;0.55;;;15.20;99.90;;;;;;5096153;28;20078;-77
2023/09/05 00:34:14;;;;;;;0.63;0.53;;;15.20;99.90;;;;;;5094946;28;20475;-78
2023/09/05 00:36:40;;;;;;;;;;;15.10;99.90;;;;;;5095446;28;20361;-77
2023/09/05 00:39:06;;;;;;;0.40;0.40;;;15.10;99.90;;;;;;5095924;28;20363;-77
2023/09/05 00:41:32;;;;;;;0.57;0.50;;;15.10;99.90;;;;;;5095853;28;20123;-77
2023/09/05 00:43:59;;;;;;;0.38;0.38;;;15.00;99.90;;;;;;5095977;28;20036;-77
2023/09/05 00:46:26;;;;;;;0.45;0.45;;;15.00;99.90;;;;;;5095846;28;20093;-77
2023/09/05 00:48:52;;;;;;;;;;;15.00;99.90;;;;;;5096079;28;20036;-77
2023/09/05 00:51:20;;;;;;;0.30;0.30;;;15.00;99.90;;;;;;5095801;28;19923;-76
2023/09/05 00:53:46;;;;;;;0.40;0.40;;;15.00;99.90;;;;;;5094478;28;20085;-77
2023/09/05 00:56:11;;;;;;;0.30;0.30;;;14.90;99.90;;;;;;5095505;28;20469;-76
2023/09/05 00:58:37;;;;;;;0.50;0.40;;;14.90;99.90;;;;;;5095701;28;20051;-77
2023/09/05 01:01:02;;;;;;;0.40;0.40;;;14.90;99.90;;;;;;5095799;28;20039;-77
2023/09/05 01:03:28;;;;;;;0.40;0.40;;;14.90;99.90;;;;;;5095912;28;20472;-77
2023/09/05 01:06:00;;;;;;;0.68;0.68;;;14.90;99.90;;;;;;5095647;28;20040;-77
2023/09/05 01:08:34;;;;;;;0.30;0.30;;;14.90;99.90;;;;;;5095631;28;20130;-77
2023/09/05 01:11:08;;;;;;;0.30;0.30;;;14.90;99.90;;;;;;5095965;28;20083;-77
2023/09/05 01:13:36;;;;;;;0.40;0.40;;;14.80;99.90;;;;;;5095540;28;20384;-77
2023/09/05 01:16:02;;;;;;;0.40;0.40;;;14.80;99.90;;;;;;5095293;28;20066;-77
2023/09/05 01:18:33;;;;;;;0.50;0.50;;;14.80;99.90;;;;;;5095298;28;20040;-77
2023/09/05 01:21:29;;;;;;;0.30;0.30;;;14.80;99.90;;;;;;5095302;28;20052;-77
2023/09/05 01:24:19;;;;;;;0.40;0.40;;;14.80;99.90;;;;;;5095212;28;20097;-77
2023/09/05 01:26:46;;;;;;;0.30;0.30;;;14.80;99.90;;;;;;5095343;28;20040;-77
2023/09/05 01:29:15;;;;;;;0.45;0.45;;;14.70;99.90;;;;;;5095138;28;20161;-77
2023/09/05 01:31:42;;;;;;;0.40;0.40;;;14.70;99.90;;;;;;5095113;28;20044;-78
2023/09/05 01:34:07;;;;;;;0.45;0.45;;;14.70;99.90;;;;;;5095010;28;20054;-77
2023/09/05 01:36:33;;;;;;;0.33;0.33;;;14.70;99.90;;;;;;5094904;28;20035;-76
2023/09/05 01:38:59;;;;;;;0.47;0.47;;;14.60;99.90;;;;;;5094913;28;20075;-77
2023/09/05 01:41:24;;;;;;;0.40;0.40;;;14.60;99.90;;;;;;5094860;28;20115;-78
2023/09/05 01:43:50;;;;;;;0.50;0.50;;;14.60;99.90;;;;;;5094854;28;20040;-77
2023/09/05 01:46:15;;;;;;;0.52;0.38;;;14.60;99.90;;;;;;5094057;28;20032;-76
2023/09/05 01:48:41;;;;;;;0.33;0.33;;;14.60;99.90;;;;;;5095681;28;20040;-77
2023/09/05 01:51:07;;;;;;;0.40;0.40;;;14.60;99.90;;;;;;5094692;28;20168;-77
2023/09/05 01:53:33;;;;;;;0.45;0.45;;;14.60;99.90;;;;;;5094615;28;20040;-77
2023/09/05 01:55:59;;;;;;;0.40;0.40;;;14.60;99.90;;;;;;5094763;28;20039;-77
2023/09/05 01:58:24;;;;;;;0.40;0.40;;;14.70;99.90;;;;;;5094699;28;20456;-77
2023/09/05 02:00:50;;;;;;;0.73;0.60;;;14.60;99.90;;;;;;5094497;28;20036;-77
2023/09/05 02:03:16;;;;;;;0.60;0.60;;;14.60;99.90;;;;;;5094487;28;20036;-77
2023/09/05 02:05:41;;;;;;;0.50;0.50;;;14.60;99.90;;;;;;5094455;28;20028;-77
2023/09/05 02:08:07;;;;;;;0.50;0.40;;;14.50;99.90;;;;;;5094442;28;20104;-77
2023/09/05 02:10:32;;;;;;;0.30;0.30;;;14.50;99.90;;;;;;5094381;28;20464;-77
2023/09/05 02:12:58;;;;;;;0.63;0.63;;;14.60;99.90;;;;;;5094291;28;20036;-77
2023/09/05 02:15:24;;;;;;;0.30;0.30;;;14.60;99.90;;;;;;5094219;28;20418;-77
2023/09/05 02:17:49;;;;;;;0.37;0.37;;;14.50;99.90;;;;;;5094143;28;20075;-78
2023/09/05 02:20:15;;;;;;;0.57;0.43;;;14.50;99.90;;;;;;5094203;28;20119;-77
2023/09/05 02:22:43;;;;;;;0.40;0.40;;;14.50;99.90;;;;;;5094471;28;20093;-77
2023/09/05 02:25:09;;;;;;;0.30;0.30;;;14.50;99.90;;;;;;5094079;28;20040;-77
2023/09/05 02:27:34;;;;;;;0.40;0.40;;;14.50;99.90;;;;;;5093114;28;20032;-77
2023/09/05 02:30:01;;;;;;;0.43;0.43;;;14.50;99.90;;;;;;5094097;28;20063;-77
2023/09/05 02:32:29;;;;;;;0.40;0.40;;;14.50;99.90;;;;;;5093952;28;20040;-80
2023/09/05 02:34:56;;;;;;;0.30;0.30;;;14.50;99.90;;;;;;5094185;28;20080;-78
2023/09/05 02:37:22;;;;;;;0.40;0.40;;;14.50;99.90;;;;;;5093894;28;20032;-77
2023/09/05 02:39:47;;;;;;;0.40;0.40;;;14.50;99.90;;;;;;5094291;28;20356;-77
2023/09/05 02:42:13;;;;;;;0.70;0.70;;;14.50;99.90;;;;;;5093705;28;20086;-77
2023/09/05 02:44:39;;;;;;;0.40;0.40;;;14.50;99.90;;;;;;5093753;28;20043;-76
2023/09/05 02:47:04;;;;;;;0.30;0.30;;;14.40;99.90;;;;;;5093758;28;20047;-77
2023/09/05 02:49:31;;;;;;;0.40;0.40;;;14.40;99.90;;;;;;5094498;28;20043;-77
2023/09/05 02:51:57;;;;;;;0.50;0.50;;;14.50;99.90;;;;;;5093846;28;20044;-77
2023/09/05 02:54:23;;;;;;;0.30;0.30;;;14.40;99.90;;;;;;5093760;28;20052;-77
2023/09/05 02:56:50;;;;;;;0.50;0.50;;;14.40;99.90;;;;;;5093704;28;20040;-77
2023/09/05 02:59:15;;;;;;;0.50;0.50;;;14.40;99.90;;;;;;5097438;28;20476;-77
2023/09/05 03:01:41;;;;;;;0.97;0.73;;;14.40;99.90;;;;;;5098183;28;20047;-77
2023/09/05 03:04:06;;;;;;;0.50;0.50;;;14.40;99.90;;;;;;5097993;28;20123;-76
2023/09/05 03:06:32;;;;;;;0.50;0.50;;;14.40;99.90;;;;;;5097911;28;20139;-77
2023/09/05 03:08:58;;;;;;;0.50;0.50;;;14.30;99.90;;;;;;5097616;28;20087;-77
2023/09/05 03:11:23;;;;;;;0.60;0.60;;;14.30;99.90;;;;;;5097783;28;20081;-77
2023/09/05 03:13:50;;;;;;;0.40;0.40;;;14.20;99.90;;;;;;5097821;28;20073;-78
2023/09/05 03:16:17;;;;;;;0.40;0.40;;;14.20;99.90;;;;;;5097575;28;20036;-77
2023/09/05 03:18:43;;;;;;;0.43;0.43;;;14.20;99.90;;;;;;5097656;28;20459;-77
2023/09/05 03:21:09;;;;;;;0.40;0.40;;;14.20;99.90;;;;;;5097581;28;20075;-76
2023/09/05 03:23:35;;;;;;;0.40;0.40;;;14.20;99.90;;;;;;5097563;28;20460;-77
2023/09/05 03:26:01;;;;;;;7.72;0.70;;;14.20;99.90;;;;;;5097462;28;20051;-77
2023/09/05 03:28:41;;;;;;;0.43;0.43;;;14.20;99.90;;;;;;5097404;28;20040;-77
2023/09/05 03:31:07;;;;;;;0.50;0.50;;;14.20;99.90;;;;;;5097427;28;20086;-78
2023/09/05 03:33:33;;;;;;;0.53;0.53;;;14.20;99.90;;;;;;5097401;28;20071;-77
2023/09/05 03:35:58;;;;;;;0.50;0.50;;;14.20;99.90;;;;;;5097633;28;20032;-77
2023/09/05 03:38:24;;;;;;;1.33;1.03;;;14.20;99.90;;;;;;5097279;28;20046;-77
2023/09/05 03:40:49;;;;;;;0.73;0.73;;;14.20;99.90;;;;;;5097229;28;20123;-77
2023/09/05 03:43:15;;;;;;;0.50;0.50;;;14.20;99.90;;;;;;5097191;28;20032;-77
2023/09/05 03:45:41;;;;;;;1.00;0.90;;;14.20;99.90;;;;;;5097093;28;20142;-78
2023/09/05 03:48:06;;;;;;;0.38;0.38;;;14.20;99.90;;;;;;5097137;28;20051;-76
2023/09/05 03:50:32;;;;;;;0.40;0.40;;;14.20;99.90;;;;;;5097033;28;20127;-77
2023/09/05 03:52:58;;;;;;;0.40;0.40;;;14.20;99.90;;;;;;5096994;28;20044;-77
2023/09/05 03:55:23;;;;;;;0.60;0.60;;;14.20;99.90;;;;;;5097079;28;20040;-77
2023/09/05 03:57:49;;;;;;;1.00;0.73;;;14.20;99.90;;;;;;5096710;28;20518;-77
2023/09/05 04:00:15;;;;;;;0.40;0.40;;;14.20;99.90;;;;;;5096435;28;20131;-77
2023/09/05 04:02:40;;;;;;;0.67;0.67;;;14.10;99.90;;;;;;5096761;28;20052;-80
2023/09/05 04:05:07;;;;;;;0.47;0.47;;;14.10;99.90;;;;;;5096817;28;20101;-80
2023/09/05 04:07:34;;;;;;;0.45;0.45;;;14.10;99.90;;;;;;5096574;28;20052;-79
2023/09/05 04:09:59;;;;;;;0.40;0.40;;;14.00;99.90;;;;;;5096145;28;20499;-77
2023/09/05 04:12:25;;;;;;;0.50;0.50;;;14.00;99.90;;;;;;5096628;28;20048;-77
2023/09/05 04:14:51;;;;;;;0.50;0.50;;;14.10;99.90;;;;;;5096479;28;20085;-77
2023/09/05 04:17:16;;;;;;;0.53;0.47;;;14.10;99.90;;;;;;5096790;28;20422;-76
2023/09/05 04:19:42;;;;;;;0.40;0.40;;;14.10;99.90;;;;;;5096288;28;20063;-77
2023/09/05 04:22:08;;;;;;;0.50;0.50;;;14.10;99.90;;;;;;5096351;28;20436;-77
2023/09/05 04:24:33;;;;;;;0.60;0.60;;;14.20;99.90;;;;;;5096411;28;20043;-77
2023/09/05 04:26:59;;;;;;;0.43;0.43;;;14.10;99.90;;;;;;5096554;28;20032;-77
2023/09/05 04:29:25;;;;;;;0.40;0.40;;;14.10;99.90;;;;;;5096163;28;20379;-77
2023/09/05 04:31:50;;;;;;;0.50;0.50;;;14.00;99.90;;;;;;5096237;28;20043;-77
2023/09/05 04:34:17;;;;;;;0.55;0.55;;;14.00;99.90;;;;;;5096177;28;20301;-77
2023/09/05 04:36:42;;;;;;;0.47;0.47;;;14.00;99.90;;;;;;5095889;28;20496;-78
2023/09/05 04:39:08;;;;;;;0.50;0.50;;;14.00;99.90;;;;;;5096099;28;20278;-77
2023/09/05 04:41:33;;;;;;;1.08;0.57;;;14.00;99.90;;;;;;5095875;28;20166;-79
2023/09/05 04:43:59;;;;;;;0.60;0.60;;;14.00;99.90;;;;;;5095979;28;20035;-79
2023/09/05 04:46:26;;;;;;;0.50;0.50;;;14.00;99.90;;;;;;5096431;28;20040;-78
2023/09/05 04:48:53;;;;;;;0.50;0.50;;;14.00;99.90;;;;;;5095849;28;20069;-77
2023/09/05 04:51:19;;;;;;;0.70;0.70;;;14.00;99.90;;;;;;5095890;28;20040;-77
2023/09/05 04:53:44;;;;;;;0.73;0.60;;;14.00;99.90;;;;;;5095739;28;20375;-79
2023/09/05 04:56:10;;;;;;;0.60;0.60;;;14.00;99.90;;;;;;5095751;28;20531;-77
2023/09/05 04:58:36;;;;;;;0.80;0.80;;;14.00;99.90;;;;;;5095758;28;20044;-79
2023/09/05 05:01:02;;;;;;;0.88;0.70;;;14.00;99.90;;;;;;5095370;28;20047;-77
2023/09/05 05:03:32;;;;;;;0.80;0.63;;;14.00;99.90;;;;;;5095664;28;20036;-76
2023/09/05 05:05:58;;;;;;;0.50;0.50;;;14.00;99.90;;;;;;5095290;28;20044;-77
2023/09/05 05:08:23;;;;;;;1.03;0.73;;;13.90;99.90;;;;;;5095771;28;20044;-77
2023/09/05 05:10:49;;;;;;;0.50;0.45;;;14.10;99.90;;;;;;5095615;28;20490;-77
2023/09/05 05:13:15;;;;;;;0.60;0.60;;;13.90;99.90;;;;;;5095420;28;20060;-77
2023/09/05 05:15:42;;;;;;;0.32;0.32;;;13.90;99.90;;;;;;5096065;28;20032;-77
2023/09/05 05:18:08;;;;;;;0.68;0.68;;;13.90;99.90;;;;;;5095447;28;20047;-77
2023/09/05 05:20:34;;;;;;;1.23;0.77;;;14.00;99.90;;;;;;5094651;28;20036;-78
2023/09/05 05:22:59;;;;;;;0.75;0.65;;;14.00;99.90;;;;;;5095399;28;20036;-79
2023/09/05 05:25:25;;;;;;;0.83;0.60;;;14.00;99.90;;;;;;5095340;28;20035;-78
2023/09/05 05:27:50;;;;;;;0.50;0.50;;;14.00;99.90;;;;;;5095102;28;20488;-79
2023/09/05 05:30:16;;;;;;;0.50;0.50;;;14.00;99.90;;;;;;5095145;28;20088;-79
2023/09/05 05:32:42;;;;;;;0.97;0.60;;;14.00;99.90;;;;;;5094692;28;20122;-79
2023/09/05 05:35:09;;;;;;;0.50;0.50;;;14.10;99.90;;;;;;5095222;28;20044;-79
2023/09/05 05:37:35;;;;;;;0.57;0.57;;;14.10;99.90;;;;;;5094965;28;20039;-79
2023/09/05 05:40:00;;;;;;;0.40;0.40;;;14.10;99.90;;;;;;5094964;28;20085;-78
2023/09/05 05:42:26;;;;;;;0.40;0.40;;;14.10;99.90;;;;;;5094943;28;20104;-78
2023/09/05 05:44:52;;;;;;;0.67;0.50;;;14.10;99.90;;;;;;5095981;28;20498;-79
2023/09/05 05:47:17;;;;;;;0.67;0.67;;;14.10;99.90;;;;;;5095257;28;20177;-79
2023/09/05 05:49:43;;;;;;;0.88;0.82;;;14.10;99.90;;;;;;5094705;28;20043;-79
2023/09/05 05:52:10;;;;;;;0.50;0.50;;;14.20;99.90;;;;;;5094588;28;20087;-79
2023/09/05 05:54:36;;;;;;;;;;;14.20;99.90;;;;;;5095203;28;20040;-79
2023/09/05 05:57:02;;;;;;;0.43;0.43;;;14.20;99.90;;;;;;5094570;28;20267;-78
2023/09/05 05:59:28;;;;;;;0.40;0.40;;;14.20;99.90;;;;;;5094587;28;20156;-80
2023/09/05 06:01:55;;;;;;;0.77;0.67;;;14.30;99.90;;;;;;5094682;28;20057;-79
2023/09/05 06:04:21;;;;;;;0.73;0.60;;;14.30;99.90;;;;;;5094846;28;20046;-79
2023/09/05 06:06:49;;;;;;;0.73;0.60;;;14.30;99.90;;;;;;5094470;28;20123;-80
2023/09/05 06:09:16;;;;;;;0.40;0.40;;;14.40;99.90;;;;;;5094562;28;20099;-78
2023/09/05 06:11:42;;;;;;;0.45;0.45;;;14.50;99.90;;;;;;5094456;28;20044;-79
2023/09/05 06:14:08;;;;;;;1.40;0.90;;;14.50;99.90;;;;;;5094068;28;20468;-79
2023/09/05 06:16:34;;;;;;;0.93;0.77;;;14.60;99.90;;;;;;5094592;28;20069;-79
2023/09/05 06:18:59;;;;;;;0.40;0.40;;;14.60;99.90;;;;;;5094258;28;20036;-79
2023/09/05 06:21:25;;;;;;;0.70;0.70;;;14.70;99.90;;;;;;5094313;28;20036;-80
2023/09/05 06:23:50;;;;;;;0.40;0.40;;;14.80;99.90;;;;;;5094200;28;20147;-79
2023/09/05 06:26:16;;;;;;;0.50;0.50;;;14.90;99.90;;;;;;5094217;28;20361;-78
2023/09/05 06:28:42;;;;;;;0.85;0.85;;;14.90;99.90;;;;;;5094024;28;20032;-80
2023/09/05 06:31:07;;;;;;;0.50;0.50;;;15.00;99.90;;;;;;5094042;28;20032;-79
2023/09/05 06:33:33;;;;;;;1.20;1.00;;;15.10;99.90;;;;;;5093788;28;20484;-78
2023/09/05 06:36:04;;;;;;;0.63;0.60;;;15.10;99.90;;;;;;5094550;28;20054;-79
2023/09/05 06:38:30;;;;;;;0.40;0.40;;;15.30;99.90;;;;;;5094233;28;20052;-79
2023/09/05 06:40:56;;;;;;;0.80;0.80;;;15.50;99.90;;;;;;5093962;28;20111;-79
2023/09/05 06:43:21;;;;;;;1.47;0.60;;;15.70;99.90;;;;;;5093850;28;20066;-80
2023/09/05 06:45:47;;;;;;;0.73;0.63;;;15.90;99.90;;;;;;5094444;28;20465;-79
2023/09/05 06:48:12;;;;;;;0.30;0.30;;;16.10;99.90;;;;;;5093942;28;20083;-79
2023/09/05 06:50:38;;;;;;;0.63;0.60;;;16.20;99.90;;;;;;5094147;28;20043;-80
2023/09/05 06:53:04;;;;;;;0.30;0.30;;;16.30;99.90;;;;;;5094077;28;20085;-79
2023/09/05 06:55:34;;;;;;;0.30;0.30;;;16.50;99.90;;;;;;5093809;28;20165;-79
2023/09/05 06:58:00;;;;;;;0.60;0.60;;;16.70;99.90;;;;;;5093806;28;20440;-79
2023/09/05 07:00:27;;;;;;;1.70;0.70;;;16.80;99.90;;;;;;5093739;28;20082;-79
2023/09/05 07:02:53;;;;;;;0.63;0.63;;;17.00;99.90;;;;;;5093685;28;20040;-79
2023/09/05 07:05:19;;;;;;;0.30;0.30;;;17.20;99.90;;;;;;5093682;28;20044;-79
2023/09/05 07:07:44;;;;;;;0.70;0.60;;;17.30;99.90;;;;;;5093531;28;20051;-79
2023/09/05 07:10:10;;;;;;;0.50;0.50;;;17.50;99.90;;;;;;5093725;28;20044;-79
2023/09/05 07:12:36;;;;;;;0.47;0.47;;;17.60;99.90;;;;;;5093295;28;20083;-79
2023/09/05 07:15:02;;;;;;;0.43;0.40;;;17.80;99.90;;;;;;5093689;28;20589;-79
2023/09/05 07:17:27;;;;;;;0.33;0.33;;;17.80;99.90;;;;;;5093507;28;20123;-79
2023/09/05 07:19:53;;;;;;;0.60;0.60;;;18.00;99.90;;;;;;5093555;28;20082;-79
2023/09/05 07:22:20;;;;;;;0.30;0.30;;;18.10;99.90;;;;;;5093611;28;20043;-79
2023/09/05 07:24:46;;;;;;;0.38;0.38;;;18.30;99.90;;;;;;5093594;28;20108;-79
2023/09/05 07:27:11;;;;;;;0.50;0.40;;;18.50;99.90;;;;;;5093451;28;20075;-79
2023/09/05 07:29:37;;;;;;;0.47;0.47;;;18.50;99.90;;;;;;5093486;28;20380;-79
2023/09/05 07:32:03;;;;;;;0.40;0.40;;;18.70;99.90;;;;;;5093781;28;20043;-80
2023/09/05 07:34:28;;;;;;;0.47;0.40;;;18.80;99.90;;;;;;5093413;28;20117;-79
2023/09/05 07:36:56;;;;;;;0.40;0.40;;;18.90;99.90;;;;;;5093283;28;20044;-79
2023/09/05 07:39:23;;;;;;;0.30;0.30;;;19.10;99.90;;;;;;5093461;28;20036;-79
2023/09/05 07:41:48;;;;;;;1.08;0.77;;;19.20;99.90;;;;;;5093370;28;20059;-79
2023/09/05 07:44:14;;;;;;;0.30;0.30;;;19.40;99.90;;;;;;5095097;28;20464;-79
2023/09/05 07:46:39;;;;;;;0.33;0.33;;;19.40;99.90;;;;;;5095711;28;20083;-79
2023/09/05 07:49:05;;;;;;;0.50;0.50;;;19.60;99.90;;;;;;5097074;28;20075;-79
2023/09/05 07:51:31;;;;;;;0.40;0.40;;;19.70;99.90;;;;;;5097412;28;20446;-79
2023/09/05 07:54:06;;;;;;;0.37;0.37;;;19.70;99.90;;;;;;5097110;28;20159;-79
2023/09/05 07:56:33;;;;;;;0.40;0.40;;;19.80;99.90;;;;;;5096799;28;20044;-79
2023/09/05 07:58:58;;;;;;;0.68;0.57;;;20.00;99.90;;;;;;5096948;28;20119;-79
2023/09/05 08:01:25;;;;;;;0.30;0.30;;;20.10;99.90;;;;;;5096880;28;20093;-79
2023/09/05 08:03:52;;;;;;;0.98;0.40;;;20.20;99.90;;;;;;5096732;28;20088;-77
2023/09/05 08:06:17;;;;;;;0.60;0.30;;;20.30;99.90;;;;;;5096816;28;20429;-77
2023/09/05 08:08:43;;;;;;;0.33;0.33;;;20.40;99.90;;;;;;5096758;28;20135;-78
2023/09/05 08:11:09;;;;;;;0.60;0.60;;;20.50;99.90;;;;;;5096551;28;20035;-78
2023/09/05 08:13:34;;;;;;;1.50;0.93;;;20.50;99.90;;;;;;5096628;28;20048;-77
2023/09/05 08:16:02;;;;;;;0.60;0.60;;;20.70;99.90;;;;;;5096501;28;20425;-77
2023/09/05 08:18:28;;;;;;;0.30;0.30;;;20.80;99.90;;;;;;5096514;28;20036;-77
2023/09/05 08:20:56;;;;;;;0.30;0.30;;;20.90;99.90;;;;;;5096285;28;20142;-77
2023/09/05 08:23:22;;;;;;;0.20;0.20;;;21.00;99.90;;;;;;5096425;28;20468;-77
2023/09/05 08:25:51;;;;;;;0.70;0.70;;;21.10;99.90;;;;;;5096017;28;20450;-77
2023/09/05 08:28:19;;;;;;;0.20;0.20;;;21.20;99.90;;;;;;5096685;28;20047;-77
2023/09/05 08:30:45;;;;;;;0.45;0.45;;;21.30;99.90;;;;;;5096233;28;20387;-77
2023/09/05 08:33:11;;;;;;;0.30;0.30;;;21.40;99.90;;;;;;5095942;28;20043;-77
2023/09/05 08:35:37;;;;;;;0.30;0.30;;;21.50;99.90;;;;;;5095842;28;20040;-78
2023/09/05 08:38:05;;;;;;;0.20;0.20;;;21.60;99.90;;;;;;5096336;28;20051;-77
2023/09/05 08:40:34;;;;;;;0.40;0.40;;;21.80;99.90;;;;;;5096130;28;20047;-77
2023/09/05 08:43:04;;;;;;;0.30;0.30;;;21.90;99.90;;;;;;5096486;28;20111;-77
2023/09/05 08:45:31;;;;;;;0.30;0.30;;;22.00;99.90;;;;;;5095997;28;20058;-77
2023/09/05 08:47:56;;;;;;;0.30;0.30;;;22.10;99.90;;;;;;5095923;28;20032;-77
2023/09/05 08:50:25;;;;;;;0.20;0.20;;;22.20;99.90;;;;;;5095930;28;20415;-77
2023/09/05 08:52:53;;;;;;;0.30;0.30;;;22.30;99.90;;;;;;5095764;28;20048;-78
2023/09/05 08:55:21;;;;;;;0.40;0.40;;;22.40;99.90;;;;;;5095024;28;20040;-77
2023/09/05 08:57:49;;;;;;;0.20;0.20;;;22.50;99.90;;;;;;5095695;28;20043;-77
2023/09/05 09:00:18;;;;;;;0.20;0.20;;;22.60;99.90;;;;;;5095078;28;20119;-77
2023/09/05 09:02:44;;;;;;;0.30;0.30;;;22.60;99.90;;;;;;5095645;28;20522;-77
2023/09/05 09:05:10;;;;;;;0.50;0.50;;;22.80;99.90;;;;;;5095848;28;20380;-78
2023/09/05 09:07:35;;;;;;;2.90;1.17;;;22.90;99.90;;;;;;5095779;28;20040;-77
2023/09/05 09:10:16;;;;;;;1.07;0.67;;;23.00;99.90;;;;;;5095963;28;20080;-78
2023/09/05 09:12:42;;;;;;;0.32;0.32;;;23.10;99.90;;;;;;5095529;28;20044;-77
2023/09/05 09:15:12;;;;;;;0.37;0.30;;;23.20;99.90;;;;;;5095544;28;20042;-78
2023/09/05 09:17:48;;;;;;;0.30;0.30;;;23.30;99.90;;;;;;5094045;28;20040;-78
2023/09/05 09:20:14;;;;;;;0.30;0.30;;;23.40;99.90;;;;;;5094943;28;20487;-77
2023/09/05 09:22:41;;;;;;;0.20;0.20;;;23.50;99.90;;;;;;5095280;28;20087;-77
2023/09/05 09:25:14;;;;;;;0.25;0.25;;;23.60;99.90;;;;;;5095547;28;20365;-78
2023/09/05 09:27:42;;;;;;;0.30;0.30;;;23.70;99.90;;;;;;5095198;28;20040;-78
2023/09/05 09:30:09;;;;;;;0.20;0.20;;;23.80;99.90;;;;;;5095172;28;20468;-77
2023/09/05 09:32:38;;;;;;;0.30;0.30;;;23.90;99.90;;;;;;5094946;28;20044;-78
2023/09/05 09:35:06;;;;;;;0.30;0.30;;;24.00;99.90;;;;;;5095417;28;20071;-78
2023/09/05 09:37:33;;;;;;;0.35;0.35;;;24.10;99.90;;;;;;5094961;28;20369;-78
2023/09/05 09:40:00;;;;;;;0.38;0.35;;;24.20;99.90;;;;;;5094627;28;20469;-77
2023/09/05 09:42:27;;;;;;;0.43;0.40;;;24.30;99.90;;;;;;5094742;28;20075;-78
2023/09/05 09:44:52;;;;;;;0.30;0.30;;;24.50;99.90;;;;;;5094519;28;20492;-78
2023/09/05 09:47:18;;;;;;;0.20;0.20;;;24.60;99.90;;;;;;5094740;28;20078;-78
2023/09/05 09:49:48;;;;;;;0.20;0.20;;;24.70;99.90;;;;;;5094539;28;20530;-78
2023/09/05 09:52:16;;;;;;;0.85;0.50;;;24.70;99.90;;;;;;5094642;28;20044;-78
2023/09/05 09:54:44;;;;;;;0.30;0.30;;;24.80;99.90;;;;;;5094328;28;20040;-78
2023/09/05 09:57:15;;;;;;;0.80;0.43;;;24.90;99.90;;;;;;5094530;28;20036;-78
2023/09/05 09:59:54;;;;;;;0.40;0.40;;;25.00;99.90;;;;;;5094604;28;20047;-78
2023/09/05 10:02:20;;;;;;;0.25;0.25;;;25.10;99.90;;;;;;5094564;28;20035;-78
2023/09/05 10:04:48;;;;;;;0.20;0.20;;;25.20;99.90;;;;;;5094877;28;20036;-78
2023/09/05 10:07:15;;;;;;;0.30;0.30;;;25.30;99.90;;;;;;5093956;28;20085;-78
2023/09/05 10:09:43;;;;;;;0.38;0.38;;;25.40;99.90;;;;;;5094341;28;20040;-78
2023/09/05 10:12:09;;;;;;;0.20;0.20;;;25.50;99.90;;;;;;5094376;28;20127;-78
2023/09/05 10:14:36;;;;;;;0.20;0.20;;;25.60;99.90;;;;;;5094389;28;20115;-78
2023/09/05 10:17:03;;;;;;;0.30;0.30;;;25.70;99.90;;;;;;5094748;28;20040;-78
2023/09/05 10:19:30;;;;;;;0.20;0.20;;;25.70;99.90;;;;;;5094192;28;20036;-78
2023/09/05 10:21:58;;;;;;;0.40;0.30;;;25.80;99.90;;;;;;5094055;28;20036;-78
2023/09/05 10:24:30;;;;;;;0.20;0.20;;;25.90;99.90;;;;;;5094120;28;20153;-78
2023/09/05 10:26:56;;;;;;;0.20;0.20;;;26.00;99.90;;;;;;5094097;28;20035;-78
2023/09/05 10:29:44;;;;;;;0.20;0.20;;;26.10;99.90;;;;;;5094087;28;20100;-78
2023/09/05 10:32:14;;;;;;;;;;;26.20;99.90;;;;;;5094479;28;20027;-78
2023/09/05 10:35:02;;;;;;;0.20;0.20;;;26.30;99.90;;;;;;5094295;28;19955;-78
2023/09/05 10:37:33;;;;;;;0.20;0.20;;;26.30;99.90;;;;;;5093878;28;20546;-79
2023/09/05 10:40:07;;;;;;;0.30;0.30;;;26.40;99.90;;;;;;5094388;28;20158;-78
2023/09/05 10:42:35;;;;;;;0.20;0.20;;;26.50;99.90;;;;;;5094159;28;20168;-78
2023/09/05 10:45:28;;;;;;;0.50;0.50;;;26.60;99.90;;;;;;5093947;28;20126;-78
2023/09/05 10:47:59;;;;;;;0.20;0.20;;;26.70;99.90;;;;;;5093872;28;20032;-78
2023/09/05 10:50:25;;;;;;;0.22;0.20;;;26.70;99.90;;;;;;5093906;28;20048;-78
2023/09/05 10:53:11;;;;;;;0.20;0.20;;;26.80;99.90;;;;;;5093894;28;20365;-78
2023/09/05 10:55:50;;;;;;;0.30;0.30;;;26.90;99.90;;;;;;5093680;28;20048;-78
2023/09/05 10:58:45;;;;;;;0.20;0.20;;;27.00;99.90;;;;;;5092839;28;20037;-78
2023/09/05 11:01:32;;;;;;;0.20;0.20;;;27.10;99.90;;;;;;5094218;28;20055;-78
2023/09/05 11:04:03;;;;;;;0.25;0.25;;;27.10;99.90;;;;;;5094011;28;20040;-78
2023/09/05 11:06:30;;;;;;;0.20;0.20;;;27.20;99.90;;;;;;5093737;28;20054;-78
2023/09/05 11:09:05;;;;;;;0.40;0.40;;;27.20;99.90;;;;;;5092678;28;20055;-78
2023/09/05 11:11:31;;;;;;;0.25;0.25;;;27.20;99.90;;;;;;5093266;28;20051;-78
2023/09/05 11:13:59;;;;;;;;;;;27.30;99.90;;;;;;5093169;28;20044;-79
2023/09/05 11:16:25;;;;;;;0.20;0.20;;;27.40;99.90;;;;;;5092705;28;19923;-78
2023/09/05 11:18:55;;;;;;;0.70;0.70;;;27.40;99.90;;;;;;5094012;28;20464;-79
2023/09/05 11:21:23;;;;;;;0.20;0.20;;;27.40;99.90;;;;;;5096304;28;20044;-78
2023/09/05 11:23:55;;;;;;;0.20;0.20;;;27.40;99.90;;;;;;5096302;28;20040;-78
2023/09/05 11:26:21;;;;;;;0.20;0.20;;;27.50;99.90;;;;;;5095967;28;20297;-78
2023/09/05 11:28:51;;;;;;;0.20;0.20;;;27.50;99.90;;;;;;5095229;28;20044;-78
2023/09/05 11:31:17;;;;;;;0.20;0.20;;;27.60;99.90;;;;;;5096074;28;20442;-77
2023/09/05 11:33:44;;;;;;;;;;;27.70;99.90;;;;;;5096334;28;20514;-79
2023/09/05 11:36:10;;;;;;;0.22;0.20;;;27.70;99.90;;;;;;5095701;28;19916;-78
2023/09/05 11:38:47;;;;;;;0.20;0.20;;;27.70;99.90;;;;;;5095920;28;20040;-78
2023/09/05 11:41:14;;;;;;;0.32;0.32;;;27.80;99.90;;;;;;5096071;28;20472;-78
2023/09/05 11:43:47;;;;;;;0.20;0.20;;;27.80;99.90;;;;;;5095934;28;20051;-79
2023/09/05 11:46:14;;;;;;;0.30;0.30;;;27.90;99.90;;;;;;5095688;28;20059;-78
2023/09/05 11:48:42;;;;;;;0.38;0.38;;;28.00;99.90;;;;;;5095452;28;20035;-78
2023/09/05 11:51:09;;;;;;;0.20;0.20;;;28.00;99.90;;;;;;5095853;28;20044;-79
2023/09/05 11:53:37;;;;;;;0.35;0.35;;;28.10;99.90;;;;;;5095777;28;20119;-79
2023/09/05 11:56:03;;;;;;;0.30;0.30;;;28.10;99.90;;;;;;5095871;28;20102;-79
2023/09/05 11:58:30;;;;;;;;;;;28.20;99.90;;;;;;5096086;28;20040;-79
2023/09/05 12:00:57;;;;;;;0.20;0.20;;;28.20;99.90;;;;;;5095640;28;19916;-79
2023/09/05 12:03:23;;;;;;;0.20;0.20;;;28.30;99.90;;;;;;5095488;28;20122;-79
2023/09/05 12:05:51;;;;;;;0.20;0.20;;;28.40;99.90;;;;;;5104233;28;20169;-79
2023/09/05 12:08:20;;;;;;;0.30;0.30;;;28.40;99.90;;;;;;5076950;28;1110890;-78
2023/09/05 12:10:51;;;;;;;0.20;0.20;;;28.40;99.90;;;;;;5116796;28;20467;-79
2023/09/05 12:13:34;;;;;;;0.20;0.20;;;28.40;99.90;;;;;;5114838;28;20058;-80
2023/09/05 12:15:59;;;;;;;0.20;0.20;;;28.40;99.90;;;;;;5116922;28;20043;-80
2023/09/05 12:18:25;;;;;;;0.20;0.20;;;28.50;99.90;;;;;;5115678;28;20044;-81
2023/09/05 12:21:00;;;;;;;0.40;0.40;;;28.50;99.90;;;;;;5115983;28;20277;-80
2023/09/05 12:23:26;;;;;;;0.20;0.20;;;28.50;99.90;;;;;;5116828;28;20046;-80
2023/09/05 12:25:52;;;;;;;;;;;28.50;99.90;;;;;;5117255;28;20043;-80
2023/09/05 12:28:20;;;;;;;0.20;0.20;;;28.50;99.90;;;;;;5116727;28;20236;-80
2023/09/05 12:30:50;;;;;;;0.30;0.30;;;28.50;99.90;;;;;;5116568;28;20157;-81
2023/09/05 12:33:16;;;;;;;0.30;0.30;;;28.60;99.90;;;;;;5116712;28;20035;-80
2023/09/05 12:35:43;;;;;;;0.20;0.20;;;28.60;99.90;;;;;;5116498;28;20047;-80
2023/09/05 12:38:10;;;;;;;0.20;0.20;;;28.70;99.90;;;;;;5116676;28;20059;-80
2023/09/05 12:40:37;;;;;;;12.48;0.88;;;28.70;99.90;;;;;;5116879;28;20064;-80
2023/09/05 12:43:04;;;;;;;0.30;0.30;;;28.80;99.90;;;;;;5116513;28;20047;-80
2023/09/05 12:45:31;;;;;;;0.20;0.20;;;28.90;99.90;;;;;;5116414;28;20092;-80
2023/09/05 12:47:57;;;;;;;0.20;0.20;;;28.90;99.90;;;;;;5116676;28;20050;-80
2023/09/05 12:50:32;;;;;;;0.30;0.30;;;29.00;99.90;;;;;;5116344;28;20399;-80